Time;durP1;ratioP1;P1;durP2;ratioP2;P2;SDS_P1;SDS_P2;PMS_P1;PMS_P2;Temp;Humidity;BMP_temperature;BMP_pressure;BME280_temperature;BME280_humidity;BME280_pressure;Samples;Min_cycle;Max_cycle;Signal;HPM_P1;HPM_P2
2022/01/31 00:02:18;;;;;;;13.77;5.82;;;;;;;;;;4926405;29;20137;-76
2022/01/31 00:04:44;;;;;;;15.70;5.97;;;;;;;;;;4931050;28;20423;-78
2022/01/31 00:07:10;;;;;;;11.73;5.53;;;;;;;;;;4948059;28;20047;-77
2022/01/31 00:09:37;;;;;;;12.10;5.55;;;;;;;;;;4940885;28;20400;-78
2022/01/31 00:12:07;;;;;;;17.77;6.50;;;;;;;;;;4930035;28;20090;-78
2022/01/31 00:17:00;;;;;;;11.73;7.18;;;;;;;;;;4926780;29;20516;-77
2022/01/31 00:19:26;;;;;;;11.68;5.97;;;;;;;;;;4944494;28;20047;-77
2022/01/31 00:21:52;;;;;;;12.82;6.13;;;;;;;;;;4943212;28;20105;-78
2022/01/31 00:24:18;;;;;;;11.90;6.88;;;;;;;;;;4943253;28;20039;-77
2022/01/31 00:26:44;;;;;;;13.30;6.68;;;;;;;;;;4931097;28;20415;-77
2022/01/31 00:29:10;;;;;;;15.70;7.18;;;;;;;;;;4908235;28;1048521;-77
2022/01/31 00:31:36;;;;;;;17.30;7.68;;;;;;;;;;4944455;28;20582;-78
2022/01/31 00:34:02;;;;;;;16.20;6.38;;;;;;;;;;4929257;29;20062;-78
2022/01/31 00:36:28;;;;;;;12.85;6.97;;;;;;;;;;4946165;28;20035;-77
2022/01/31 00:38:54;;;;;;;17.33;7.05;;;;;;;;;;4928474;29;20486;-77
2022/01/31 00:41:20;;;;;;;11.82;5.85;;;;;;;;;;4929951;29;20133;-77
2022/01/31 00:43:57;;;;;;;13.20;5.57;;;;;;;;;;4943417;28;20051;-77
2022/01/31 00:46:29;;;;;;;17.17;6.07;;;;;;;;;;4944740;28;20048;-77
2022/01/31 00:48:55;;;;;;;12.48;4.05;;;;;;;;;;4949165;29;20039;-77
2022/01/31 00:51:21;;;;;;;11.27;4.03;;;;;;;;;;4945654;28;21740;-77
2022/01/31 00:53:47;;;;;;;15.63;4.70;;;;;;;;;;4944704;28;20039;-76
2022/01/31 00:56:13;;;;;;;12.43;3.80;;;;;;;;;;4944053;28;20047;-76
2022/01/31 00:58:39;;;;;;;9.02;3.55;;;;;;;;;;4946075;28;20590;-76
2022/01/31 01:01:05;;;;;;;14.95;3.22;;;;;;;;;;4947783;28;20055;-76
2022/01/31 01:03:31;;;;;;;8.20;2.85;;;;;;;;;;4943433;28;20047;-76
2022/01/31 01:05:57;;;;;;;10.68;3.15;;;;;;;;;;4945753;28;20044;-76
2022/01/31 01:08:23;;;;;;;9.57;2.70;;;;;;;;;;4944771;28;20855;-76
2022/01/31 01:10:49;;;;;;;10.07;2.65;;;;;;;;;;4944000;28;20094;-77
2022/01/31 01:13:15;;;;;;;4.97;2.35;;;;;;;;;;4944912;28;20043;-76
2022/01/31 01:15:41;;;;;;;11.13;2.97;;;;;;;;;;4942884;28;20043;-76
2022/01/31 01:18:07;;;;;;;7.03;2.55;;;;;;;;;;4944586;28;20070;-77
2022/01/31 01:20:33;;;;;;;9.18;2.97;;;;;;;;;;4945288;28;20039;-76
2022/01/31 01:22:59;;;;;;;9.05;2.80;;;;;;;;;;4927910;28;20567;-76
2022/01/31 01:25:25;;;;;;;11.07;2.90;;;;;;;;;;4942787;28;20395;-76
2022/01/31 01:27:53;;;;;;;13.85;3.28;;;;;;;;;;4944258;28;20516;-76
2022/01/31 01:30:20;;;;;;;9.25;3.17;;;;;;;;;;4945687;28;20142;-75
2022/01/31 01:33:01;;;;;;;12.85;3.65;;;;;;;;;;4943424;28;20459;-76
2022/01/31 01:35:31;;;;;;;11.77;3.63;;;;;;;;;;4944114;28;20109;-76
2022/01/31 01:37:59;;;;;;;17.17;4.38;;;;;;;;;;4951265;28;20057;-76
2022/01/31 01:40:25;;;;;;;12.38;3.65;;;;;;;;;;4951625;28;20047;-76
2022/01/31 01:42:51;;;;;;;15.25;4.13;;;;;;;;;;4952333;28;20086;-76
2022/01/31 01:45:17;;;;;;;8.25;3.83;;;;;;;;;;4951420;28;20094;-76
2022/01/31 01:47:43;;;;;;;14.05;4.13;;;;;;;;;;4926780;29;20495;-76
2022/01/31 01:50:09;;;;;;;14.07;4.32;;;;;;;;;;4946936;28;20050;-76
2022/01/31 01:52:36;;;;;;;20.25;5.15;;;;;;;;;;4944210;28;20047;-76
2022/01/31 01:55:02;;;;;;;15.57;5.05;;;;;;;;;;4943524;28;20051;-76
2022/01/31 01:57:28;;;;;;;17.88;5.90;;;;;;;;;;4944036;28;20047;-76
2022/01/31 01:59:56;;;;;;;20.30;5.35;;;;;;;;;;4947020;28;20039;-76
2022/01/31 02:02:22;;;;;;;20.00;5.40;;;;;;;;;;4945621;28;20047;-76
2022/01/31 02:04:49;;;;;;;24.98;5.57;;;;;;;;;;4945393;28;20043;-76
2022/01/31 02:07:15;;;;;;;19.10;5.30;;;;;;;;;;4927418;29;20059;-76
2022/01/31 02:09:52;;;;;;;18.25;5.45;;;;;;;;;;4944978;28;20059;-76
2022/01/31 02:12:18;;;;;;;21.85;5.32;;;;;;;;;;4943911;28;20047;-77
2022/01/31 02:14:44;;;;;;;16.27;5.68;;;;;;;;;;4942783;28;20578;-76
2022/01/31 02:17:10;;;;;;;18.35;6.18;;;;;;;;;;4924008;28;20138;-77
2022/01/31 02:19:36;;;;;;;16.40;5.53;;;;;;;;;;4944304;28;20047;-77
2022/01/31 02:22:02;;;;;;;21.33;5.38;;;;;;;;;;4926260;29;20047;-76
2022/01/31 02:24:30;;;;;;;12.52;5.20;;;;;;;;;;4928652;29;20559;-77
2022/01/31 02:26:58;;;;;;;19.63;5.65;;;;;;;;;;4928787;29;20070;-77
2022/01/31 02:29:24;;;;;;;27.08;6.40;;;;;;;;;;4940361;28;20533;-77
2022/01/31 02:31:50;;;;;;;19.38;5.65;;;;;;;;;;4944204;28;20047;-76
2022/01/31 02:34:17;;;;;;;17.15;5.15;;;;;;;;;;4943885;28;20050;-77
2022/01/31 02:36:43;;;;;;;21.20;6.13;;;;;;;;;;4926115;28;20150;-76
2022/01/31 02:39:09;;;;;;;17.08;5.28;;;;;;;;;;4943973;28;20526;-77
2022/01/31 02:41:40;;;;;;;20.08;5.18;;;;;;;;;;4943358;28;20385;-77
2022/01/31 02:44:13;;;;;;;17.33;4.82;;;;;;;;;;4923653;28;20047;-76
2022/01/31 02:46:39;;;;;;;13.32;4.57;;;;;;;;;;4943542;28;20144;-77
2022/01/31 02:49:06;;;;;;;13.10;4.82;;;;;;;;;;4943112;28;20039;-77
2022/01/31 02:51:33;;;;;;;16.02;4.55;;;;;;;;;;4927433;29;20162;-77
2022/01/31 02:54:03;;;;;;;14.95;4.68;;;;;;;;;;4928583;28;20043;-77
2022/01/31 02:56:32;;;;;;;19.00;4.75;;;;;;;;;;4942190;28;20043;-77
2022/01/31 02:58:58;;;;;;;21.00;5.13;;;;;;;;;;4926884;29;20043;-77
2022/01/31 03:01:24;;;;;;;17.98;5.05;;;;;;;;;;4940517;28;20059;-77
2022/01/31 03:03:50;;;;;;;16.23;4.60;;;;;;;;;;4943900;28;20904;-77
2022/01/31 03:06:16;;;;;;;14.32;4.90;;;;;;;;;;4943364;28;20066;-77
2022/01/31 03:08:42;;;;;;;15.60;4.45;;;;;;;;;;4923838;29;20047;-77
2022/01/31 03:11:08;;;;;;;15.68;4.22;;;;;;;;;;4943249;28;20078;-77
2022/01/31 03:13:34;;;;;;;14.23;4.25;;;;;;;;;;4941874;28;20043;-77
2022/01/31 03:16:00;;;;;;;16.77;4.80;;;;;;;;;;4927122;29;20055;-77
2022/01/31 03:18:27;;;;;;;17.67;4.70;;;;;;;;;;4924691;29;20380;-77
2022/01/31 03:20:53;;;;;;;15.02;4.57;;;;;;;;;;4926095;29;20123;-77
2022/01/31 03:23:19;;;;;;;15.05;3.78;;;;;;;;;;4925818;28;20053;-78
2022/01/31 03:25:45;;;;;;;15.70;5.03;;;;;;;;;;4926633;29;20048;-78
2022/01/31 03:28:11;;;;;;;14.50;4.30;;;;;;;;;;4942913;28;20046;-77
2022/01/31 03:30:37;;;;;;;13.20;3.75;;;;;;;;;;4941808;28;20051;-77
2022/01/31 03:33:03;;;;;;;19.02;5.03;;;;;;;;;;4942715;28;20051;-77
2022/01/31 03:35:29;;;;;;;18.75;4.60;;;;;;;;;;4943689;28;20069;-77
2022/01/31 03:37:55;;;;;;;21.40;5.18;;;;;;;;;;4943143;28;20050;-78
2022/01/31 03:40:21;;;;;;;15.40;5.10;;;;;;;;;;4925292;29;20463;-78
2022/01/31 03:42:47;;;;;;;17.30;4.70;;;;;;;;;;4924604;28;20055;-78
2022/01/31 03:45:13;;;;;;;18.38;5.47;;;;;;;;;;4943693;28;20078;-78
2022/01/31 03:47:44;;;;;;;10.70;3.38;;;;;;;;;;4942016;28;20070;-77
2022/01/31 03:50:11;;;;;;;14.77;3.95;;;;;;;;;;4942468;28;20102;-77
2022/01/31 03:52:38;;;;;;;13.73;4.00;;;;;;;;;;4924565;28;20055;-77
2022/01/31 03:55:04;;;;;;;15.63;4.78;;;;;;;;;;4942335;28;20047;-77
2022/01/31 03:57:31;;;;;;;12.27;3.88;;;;;;;;;;4925833;29;20460;-77
2022/01/31 03:59:57;;;;;;;17.02;4.05;;;;;;;;;;4926928;29;20122;-77
2022/01/31 04:02:23;;;;;;;15.85;4.53;;;;;;;;;;4926308;29;20485;-77
2022/01/31 04:04:49;;;;;;;15.82;4.28;;;;;;;;;;4946586;28;20045;-77
2022/01/31 04:07:15;;;;;;;15.73;5.18;;;;;;;;;;4925475;28;20043;-77
2022/01/31 04:09:41;;;;;;;25.15;5.03;;;;;;;;;;4945470;28;20228;-77
2022/01/31 04:12:07;;;;;;;19.75;5.10;;;;;;;;;;4947381;28;21500;-77
2022/01/31 04:14:33;;;;;;;19.98;5.10;;;;;;;;;;4944998;28;20046;-77
2022/01/31 04:17:01;;;;;;;15.43;3.50;;;;;;;;;;4928772;28;20058;-79
2022/01/31 04:19:27;;;;;;;11.93;3.08;;;;;;;;;;4945812;28;20798;-79
2022/01/31 04:21:53;;;;;;;13.07;2.95;;;;;;;;;;4945606;28;20558;-79
2022/01/31 04:24:23;;;;;;;12.95;3.00;;;;;;;;;;4944285;28;20459;-79
2022/01/31 04:26:58;;;;;;;14.60;3.60;;;;;;;;;;4946211;28;20055;-79
2022/01/31 04:29:27;;;;;;;9.93;2.75;;;;;;;;;;4943955;28;20078;-78
2022/01/31 04:31:54;;;;;;;14.95;3.85;;;;;;;;;;4945185;28;20523;-79
2022/01/31 04:34:23;;;;;;;16.58;3.95;;;;;;;;;;4944453;28;20055;-80
2022/01/31 04:36:49;;;;;;;15.98;3.65;;;;;;;;;;4928743;28;20117;-79
2022/01/31 04:39:18;;;;;;;16.17;3.50;;;;;;;;;;4929591;29;20043;-79
2022/01/31 04:41:45;;;;;;;14.57;3.53;;;;;;;;;;4928014;29;20134;-78
2022/01/31 04:44:11;;;;;;;19.52;4.30;;;;;;;;;;4945220;28;20043;-78
2022/01/31 04:46:39;;;;;;;13.15;3.42;;;;;;;;;;4927760;29;20055;-78
2022/01/31 04:49:05;;;;;;;12.20;3.28;;;;;;;;;;4928526;29;20055;-77
2022/01/31 04:51:31;;;;;;;15.52;3.45;;;;;;;;;;4945544;28;20412;-78
2022/01/31 04:53:57;;;;;;;18.30;3.83;;;;;;;;;;4932023;29;20067;-78
2022/01/31 04:56:23;;;;;;;17.33;3.80;;;;;;;;;;4926467;28;20047;-78
2022/01/31 04:58:49;;;;;;;15.75;4.13;;;;;;;;;;4948671;28;20065;-78
2022/01/31 05:01:16;;;;;;;20.80;3.95;;;;;;;;;;4945807;28;20476;-78
2022/01/31 05:03:44;;;;;;;21.95;4.97;;;;;;;;;;4927455;29;20126;-78
2022/01/31 05:06:13;;;;;;;24.98;5.32;;;;;;;;;;4928885;28;20138;-77
2022/01/31 05:08:39;;;;;;;21.33;4.80;;;;;;;;;;4945113;28;20111;-77
2022/01/31 05:11:10;;;;;;;22.13;4.40;;;;;;;;;;4944570;28;20066;-78
2022/01/31 05:13:39;;;;;;;11.88;3.60;;;;;;;;;;4945320;28;20043;-77
2022/01/31 05:16:05;;;;;;;13.52;3.35;;;;;;;;;;4928466;29;20039;-77
2022/01/31 05:18:33;;;;;;;14.52;3.03;;;;;;;;;;4927390;29;20066;-77
2022/01/31 05:20:59;;;;;;;13.68;3.83;;;;;;;;;;4945679;28;20077;-78
2022/01/31 05:23:25;;;;;;;9.93;3.67;;;;;;;;;;4945394;28;20078;-78
2022/01/31 05:25:50;;;;;;;16.30;3.55;;;7.30;99.90;;;;;;4942584;28;20943;-77
2022/01/31 05:28:19;;;;;;;18.08;3.67;;;5.60;99.90;;;;;;4945427;28;20047;-77
2022/01/31 05:30:44;;;;;;;11.15;3.70;;;5.40;99.90;;;;;;4943813;28;20145;-77
2022/01/31 05:33:10;;;;;;;15.57;4.13;;;5.20;99.90;;;;;;4927517;29;20182;-77
2022/01/31 05:35:36;;;;;;;15.73;3.85;;;5.30;99.90;;;;;;4947889;28;20055;-77
2022/01/31 05:38:02;;;;;;;13.68;3.97;;;5.50;99.90;;;;;;4943119;28;20415;-77
2022/01/31 05:40:28;;;;;;;13.15;3.72;;;5.50;99.90;;;;;;4927831;29;20138;-78
2022/01/31 05:42:54;;;;;;;14.23;3.63;;;5.60;99.90;;;;;;4928692;28;20414;-77
2022/01/31 05:45:22;;;;;;;14.18;3.60;;;5.40;99.90;;;;;;4945821;28;20054;-77
2022/01/31 05:47:49;;;;;;;15.85;3.95;;;5.60;99.90;;;;;;4923728;28;20535;-77
2022/01/31 05:50:16;;;;;;;21.20;4.22;;;5.40;99.90;;;;;;4945416;28;20085;-78
2022/01/31 05:52:43;;;;;;;16.98;3.85;;;5.60;99.90;;;;;;4942537;28;20047;-77
2022/01/31 05:55:09;;;;;;;26.67;4.93;;;5.30;99.90;;;;;;4949401;28;20509;-77
2022/01/31 05:57:35;;;;;;;21.08;4.63;;;5.40;99.90;;;;;;4951672;28;20387;-77
2022/01/31 06:00:03;;;;;;;23.25;4.72;;;5.60;99.90;;;;;;4951713;28;20055;-76
2022/01/31 06:02:30;;;;;;;18.92;4.70;;;5.60;99.90;;;;;;4951072;28;20066;-76
2022/01/31 06:04:55;;;;;;;17.83;4.07;;;5.60;99.90;;;;;;4952603;28;20042;-76
2022/01/31 06:07:21;;;;;;;17.95;4.03;;;5.60;99.90;;;;;;4931488;28;20050;-76
2022/01/31 06:09:48;;;;;;;17.75;4.03;;;5.50;99.90;;;;;;4942160;28;20042;-76
2022/01/31 06:12:15;;;;;;;11.18;3.50;;;5.50;99.90;;;;;;4949377;28;20402;-77
2022/01/31 06:14:41;;;;;;;16.30;4.20;;;5.20;99.90;;;;;;4950914;28;20046;-76
2022/01/31 06:17:07;;;;;;;21.08;4.55;;;5.20;99.90;;;;;;4952639;28;20097;-77
2022/01/31 06:19:33;;;;;;;20.35;4.40;;;5.40;99.90;;;;;;4948286;28;20499;-77
2022/01/31 06:21:58;;;;;;;21.67;4.38;;;5.50;99.90;;;;;;4951113;28;20035;-77
2022/01/31 06:24:24;;;;;;;16.40;4.43;;;5.50;99.90;;;;;;4933504;29;20130;-76
2022/01/31 06:26:50;;;;;;;19.48;4.82;;;5.20;99.90;;;;;;4954064;28;20050;-77
2022/01/31 06:29:16;;;;;;;15.90;4.63;;;5.40;99.90;;;;;;4950291;28;20519;-76
2022/01/31 06:31:42;;;;;;;23.83;5.35;;;5.40;99.90;;;;;;4951601;29;20122;-77
2022/01/31 06:34:08;;;;;;;25.65;6.10;;;5.60;99.90;;;;;;4931638;29;20118;-77
2022/01/31 06:36:36;;;;;;;18.48;4.93;;;5.80;99.90;;;;;;4951267;29;20035;-77
2022/01/31 06:39:03;;;;;;;18.63;4.30;;;5.50;99.90;;;;;;4946291;28;20042;-76
2022/01/31 06:41:29;;;;;;;22.70;5.32;;;5.70;99.90;;;;;;4930598;29;20051;-76
2022/01/31 06:43:55;;;;;;;24.00;4.80;;;;;;;;;;4951055;28;20051;-76
2022/01/31 06:46:21;;;;;;;15.98;4.75;;;5.30;99.90;;;;;;4954218;28;20492;-77
2022/01/31 06:48:47;;;;;;;25.38;5.35;;;5.60;99.90;;;;;;4949479;28;20035;-76
2022/01/31 06:51:13;;;;;;;29.33;5.55;;;5.80;99.90;;;;;;4929749;29;20059;-75
2022/01/31 06:53:38;;;;;;;21.08;5.50;;;5.70;99.90;;;;;;4949921;28;20050;-77
2022/01/31 06:56:08;;;;;;;19.38;4.88;;;;;;;;;;4937832;28;20051;-78
2022/01/31 06:58:34;;;;;;;27.35;5.65;;;;;;;;;;4930409;29;20048;-76
2022/01/31 07:01:00;;;;;;;18.98;4.75;;;;;;;;;;4929670;28;20047;-77
2022/01/31 07:03:26;;;;;;;24.20;5.97;;;;;;;;;;4924365;29;20051;-77
2022/01/31 07:05:52;;;;;;;24.98;5.60;;;;;;;;;;4942364;28;20081;-77
2022/01/31 07:08:18;;;;;;;21.35;4.85;;;;;;;;;;4926564;28;20056;-78
2022/01/31 07:10:51;;;;;;;25.83;5.85;;;;;;;;;;4942071;28;20134;-78
2022/01/31 07:16:03;;;;;;;21.67;5.25;;;;;;;;;;4948403;28;20379;-78
2022/01/31 07:18:30;;;;;;;24.17;5.57;;;;;;;;;;4928235;29;20047;-78
2022/01/31 07:20:58;;;;;;;17.58;3.95;;;;;;;;;;4925192;28;20415;-77
2022/01/31 07:23:28;;;;;;;17.50;4.63;;;;;;;;;;4924722;28;20555;-77
2022/01/31 07:25:57;;;;;;;20.08;4.60;;;;;;;;;;4931408;29;20043;-78
2022/01/31 07:28:23;;;;;;;21.55;5.13;;;;;;;;;;4943847;28;20058;-78
2022/01/31 07:30:50;;;;;;;28.85;6.18;;;;;;;;;;4950626;28;20047;-78
2022/01/31 07:33:17;;;;;;;20.60;5.28;;;;;;;;;;4950940;28;20846;-80
2022/01/31 07:35:43;;;;;;;18.38;4.97;;;;;;;;;;4934820;28;20144;-78
2022/01/31 07:38:11;;;;;;;19.27;4.63;;;;;;;;;;4937188;29;20396;-78
2022/01/31 07:40:37;;;;;;;15.52;4.32;;;5.50;99.90;;;;;;4936378;28;20447;-79
2022/01/31 07:43:04;;;;;;;18.90;4.70;;;6.50;99.90;;;;;;4953034;28;20506;-83
2022/01/31 07:45:29;;;;;;;20.52;5.82;;;6.40;99.90;;;;;;4952810;28;20118;-78
2022/01/31 07:47:55;;;;;;;23.27;4.95;;;6.40;99.90;;;;;;4936928;29;20134;-78
2022/01/31 07:50:21;;;;;;;12.38;4.38;;;6.50;99.90;;;;;;4953973;28;20050;-74
2022/01/31 07:52:47;;;;;;;11.52;4.80;;;6.40;99.90;;;;;;4952409;28;20050;-74
2022/01/31 07:55:13;;;;;;;15.48;4.03;;;6.60;99.90;;;;;;4953822;28;20496;-76
2022/01/31 07:57:41;;;;;;;12.25;3.97;;;6.60;99.90;;;;;;4935702;29;20051;-76
2022/01/31 08:00:08;;;;;;;14.82;3.83;;;6.60;99.90;;;;;;4937142;29;20395;-77
2022/01/31 08:02:33;;;;;;;14.20;4.13;;;6.60;99.90;;;;;;4950612;28;20039;-82
2022/01/31 08:04:59;;;;;;;11.25;3.58;;;6.60;99.90;;;;;;4951477;29;20537;-78
2022/01/31 08:07:28;;;;;;;15.10;3.88;;;6.70;99.90;;;;;;4950352;28;20047;-76
2022/01/31 08:09:53;;;;;;;9.63;3.00;;;6.60;99.90;;;;;;4937171;28;20545;-78
2022/01/31 08:12:19;;;;;;;17.75;4.40;;;6.70;99.90;;;;;;4930515;28;20460;-77
2022/01/31 08:14:46;;;;;;;16.52;3.85;;;6.70;99.90;;;;;;4935719;29;20042;-77
2022/01/31 08:17:12;;;;;;;11.10;3.95;;;6.70;99.90;;;;;;4935125;29;20047;-77
2022/01/31 08:19:37;;;;;;;11.98;3.97;;;6.80;99.90;;;;;;4935994;29;20479;-77
2022/01/31 08:22:03;;;;;;;14.00;3.70;;;6.60;99.90;;;;;;4950092;28;20043;-78
2022/01/31 08:24:28;;;;;;;13.40;4.00;;;6.70;99.90;;;;;;4952437;28;20476;-77
2022/01/31 08:26:54;;;;;;;16.27;3.88;;;6.70;99.90;;;;;;4953759;28;20064;-77
2022/01/31 08:29:24;;;;;;;15.85;4.53;;;6.80;99.90;;;;;;4936050;29;20063;-77
2022/01/31 08:31:53;;;;;;;14.05;4.20;;;6.70;99.90;;;;;;4951359;28;20055;-77
2022/01/31 08:35:47;;;;;;;15.77;3.78;;;6.80;99.90;;;;;;4955480;29;20043;-77
2022/01/31 08:37:08;;;;;;;11.60;3.40;;;6.70;99.90;;;;;;4938262;29;20062;-77
2022/01/31 08:39:33;;;;;;;13.60;3.97;;;6.70;99.90;;;;;;4955559;29;20105;-77
2022/01/31 08:41:59;;;;;;;10.10;3.20;;;6.80;99.90;;;;;;4925011;29;20040;-77
2022/01/31 08:44:27;;;;;;;12.48;3.38;;;6.70;99.90;;;;;;4937756;29;20051;-77
2022/01/31 08:46:54;;;;;;;12.93;3.33;;;6.60;99.90;;;;;;4953698;29;20182;-77
2022/01/31 08:49:20;;;;;;;10.48;2.85;;;6.60;99.90;;;;;;4955031;28;20051;-77
2022/01/31 08:51:46;;;;;;;11.30;3.10;;;6.60;99.90;;;;;;4954692;29;20049;-77
2022/01/31 08:54:13;;;;;;;12.27;3.05;;;6.60;99.90;;;;;;4938298;29;20160;-77
2022/01/31 08:56:40;;;;;;;8.35;2.65;;;6.60;99.90;;;;;;4936111;29;20043;-77
2022/01/31 08:59:08;;;;;;;9.27;2.72;;;6.60;99.90;;;;;;4937685;29;20047;-76
2022/01/31 09:01:34;;;;;;;10.27;2.70;;;6.60;99.90;;;;;;4937112;29;20491;-77
2022/01/31 09:04:12;;;;;;;7.95;2.35;;;6.50;99.90;;;;;;4954683;29;20122;-76
2022/01/31 09:06:38;;;;;;;7.47;2.10;;;6.60;99.90;;;;;;4954495;29;20479;-76
2022/01/31 09:09:09;;;;;;;8.82;2.10;;;6.50;99.90;;;;;;4954728;29;20097;-77
2022/01/31 09:11:36;;;;;;;6.90;2.10;;;6.50;99.90;;;;;;4936489;28;20082;-77
2022/01/31 09:14:02;;;;;;;8.85;2.72;;;6.60;99.90;;;;;;4934452;29;20067;-77
2022/01/31 09:16:28;;;;;;;3.95;1.88;;;6.60;99.90;;;;;;4949376;28;20066;-77
2022/01/31 09:18:54;;;;;;;12.30;2.88;;;6.50;99.90;;;;;;4944106;29;20078;-76
2022/01/31 09:21:19;;;;;;;7.13;2.40;;;6.40;99.90;;;;;;4937539;29;20047;-77
2022/01/31 09:23:51;;;;;;;9.20;2.28;;;6.40;99.90;;;;;;4936468;29;20511;-76
2022/01/31 09:26:18;;;;;;;9.65;2.33;;;6.30;99.90;;;;;;4954424;28;20621;-77
2022/01/31 09:28:44;;;;;;;8.63;2.45;;;6.30;99.90;;;;;;4937325;29;20070;-76
2022/01/31 09:31:09;;;;;;;4.63;2.35;;;6.30;99.90;;;;;;4936570;29;20409;-76
2022/01/31 09:33:35;;;;;;;8.20;2.10;;;6.30;99.90;;;;;;4936935;29;20047;-76
2022/01/31 09:36:01;;;;;;;16.90;2.45;;;;;;;;;;4953901;28;20120;-76
2022/01/31 09:38:28;;;;;;;9.80;2.78;;;;;;;;;;4935641;29;20051;-76
2022/01/31 09:40:54;;;;;;;9.80;3.03;;;;;;;;;;4937177;29;20405;-76
2022/01/31 09:48:36;;;;;;;20.98;6.07;;;6.50;99.90;;;;;;4954064;28;20047;-76
2022/01/31 09:51:07;;;;;;;19.55;5.47;;;6.50;99.90;;;;;;4936259;29;20035;-76
2022/01/31 09:53:36;;;;;;;18.00;4.95;;;6.50;99.90;;;;;;4953603;29;20039;-76
2022/01/31 09:56:04;;;;;;;17.67;4.97;;;6.80;99.90;;;;;;4935477;28;20098;-76
2022/01/31 09:58:30;;;;;;;17.58;5.20;;;6.50;99.90;;;;;;4936368;29;20131;-76
2022/01/31 10:01:09;;;;;;;23.92;5.90;;;6.70;99.90;;;;;;4954134;29;20556;-76
2022/01/31 10:03:59;;;;;;;19.25;5.57;;;6.60;99.90;;;;;;4932938;29;20047;-76
2022/01/31 10:06:26;;;;;;;26.63;6.03;;;6.60;99.90;;;;;;4941222;29;20498;-75
2022/01/31 10:09:05;;;;;;;24.40;6.50;;;6.70;99.90;;;;;;4935385;29;20138;-76
2022/01/31 10:17:02;;;;;;;22.95;5.30;;;6.60;99.90;;;;;;4949303;29;20043;-76
2022/01/31 10:19:28;;;;;;;21.85;5.07;;;;;;;;;;4922734;29;20096;-76
2022/01/31 10:21:56;;;;;;;22.67;5.60;;;;;;;;;;4935700;29;20134;-75
2022/01/31 10:24:23;;;;;;;18.65;5.28;;;;;;;;;;4953144;28;20051;-76
2022/01/31 10:26:49;;;;;;;21.27;6.10;;;;;;;;;;4935782;29;20047;-76
2022/01/31 10:29:16;;;;;;;22.08;6.18;;;;;;;;;;4936580;29;20631;-75
2022/01/31 10:32:09;;;;;;;24.33;5.90;;;;;;;;;;4936333;29;20058;-76
2022/01/31 10:34:36;;;;;;;20.15;5.95;;;;;;;;;;4934159;29;20070;-76
2022/01/31 10:37:04;;;;;;;29.38;6.40;;;;;;;;;;4952446;29;20055;-76
2022/01/31 10:45:22;;;;;;;27.77;7.30;;;6.80;99.90;;;;;;4936655;29;20392;-76
2022/01/31 10:53:05;;;;;;;27.73;7.82;;;7.30;99.90;;;;;;4936737;29;20055;-76
2022/01/31 10:55:31;;;;;;;28.60;7.65;;;7.30;99.90;;;;;;4949286;28;20062;-76
2022/01/31 10:58:10;;;;;;;28.42;6.78;;;7.20;99.90;;;;;;4953673;28;20051;-76
2022/01/31 11:00:50;;;;;;;29.13;7.63;;;7.20;99.90;;;;;;4953049;29;20488;-76
2022/01/31 11:03:32;;;;;;;29.88;6.78;;;7.20;99.90;;;;;;4928105;29;20369;-76
2022/01/31 11:06:05;;;;;;;22.80;6.40;;;7.30;99.90;;;;;;4923076;29;20051;-76
2022/01/31 11:08:31;;;;;;;22.30;6.37;;;7.30;99.90;;;;;;4955727;29;20046;-77
2022/01/31 11:10:58;;;;;;;23.58;6.32;;;7.30;99.90;;;;;;4956045;28;20055;-77
2022/01/31 11:13:25;;;;;;;21.27;5.50;;;7.10;99.90;;;;;;4938649;29;20046;-77
2022/01/31 11:15:55;;;;;;;24.13;5.70;;;7.30;99.90;;;;;;4956761;29;20047;-77
2022/01/31 11:18:23;;;;;;;22.80;5.75;;;7.30;99.90;;;;;;4935824;29;20047;-76
2022/01/31 11:20:52;;;;;;;21.35;5.63;;;;;;;;;;4927011;29;20515;-77
2022/01/31 11:23:19;;;;;;;22.45;5.72;;;;;;;;;;4938596;29;20047;-78
2022/01/31 11:25:48;;;;;;;23.25;5.95;;;;;;;;;;4956368;28;20074;-78
2022/01/31 11:28:17;;;;;;;18.40;6.05;;;;;;;;;;4938915;29;20086;-78
2022/01/31 11:30:43;;;;;;;25.05;6.22;;;;;;;;;;4953373;28;20127;-76
2022/01/31 11:33:10;;;;;;;28.73;6.47;;;;;;;;;;4956151;29;20487;-76
2022/01/31 11:35:36;;;;;;;19.15;5.28;;;;;;;;;;4938347;29;20130;-76
2022/01/31 11:38:03;;;;;;;20.77;5.43;;;;;;;;;;4955212;28;20090;-77
2022/01/31 11:40:29;;;;;;;20.65;5.32;;;;;;;;;;4935945;29;20039;-76
2022/01/31 11:42:56;;;;;;;22.48;5.00;;;;;;;;;;4938914;29;20182;-76
2022/01/31 11:45:22;;;;;;;24.05;5.53;;;;;;;;;;4937228;29;20051;-76
2022/01/31 11:47:49;;;;;;;16.05;4.75;;;;;;;;;;4950641;29;20573;-79
2022/01/31 11:50:16;;;;;;;23.08;5.57;;;;;;;;;;4934096;29;20043;-77
2022/01/31 11:52:49;;;;;;;22.00;5.22;;;;;;;;;;4955275;28;20043;-76
2022/01/31 11:55:19;;;;;;;20.67;6.50;;;;;;;;;;4939541;29;20043;-76
2022/01/31 11:57:47;;;;;;;20.23;4.90;;;;;;;;;;4948236;28;20059;-76
2022/01/31 12:00:13;;;;;;;17.80;5.50;;;;;;;;;;4936206;29;20518;-75
2022/01/31 12:02:44;;;;;;;18.38;4.65;;;;;;;;;;4938427;29;20051;-75
2022/01/31 12:05:15;;;;;;;20.88;4.93;;;;;;;;;;4953981;28;20055;-76
2022/01/31 12:07:43;;;;;;;22.25;5.35;;;;;;;;;;4955648;29;20412;-76
2022/01/31 12:10:11;;;;;;;22.58;6.55;;;;;;;;;;4955197;28;20050;-76
2022/01/31 12:24:07;;;;;;;19.20;5.20;;;;;;;;;;4953911;29;20479;-77
2022/01/31 12:26:33;;;;;;;17.00;5.82;;;;;;;;;;4950670;28;20048;-79
2022/01/31 12:29:00;;;;;;;21.40;5.63;;;;;;;;;;4932852;29;20415;-79
2022/01/31 12:31:31;;;;;;;19.52;4.65;;;;;;;;;;4951331;29;20391;-80
2022/01/31 12:33:57;;;;;;;21.73;5.15;;;;;;;;;;4955039;29;20162;-79
2022/01/31 12:36:35;;;;;;;23.50;5.90;;;;;;;;;;4955461;28;20044;-77
2022/01/31 12:39:21;;;;;;;23.90;6.95;;;;;;;;;;4958092;28;20055;-77
2022/01/31 12:42:02;;;;;;;20.35;5.57;;;;;;;;;;4953290;29;20423;-77
2022/01/31 12:44:35;;;;;;;21.60;5.97;;;;;;;;;;4937014;29;20059;-77
2022/01/31 12:47:07;;;;;;;20.88;5.80;;;;;;;;;;4935717;29;20039;-77
2022/01/31 12:49:33;;;;;;;19.77;5.03;;;;;;;;;;4954735;29;20050;-78
2022/01/31 12:52:04;;;;;;;16.25;5.45;;;;;;;;;;4937643;29;20371;-78
2022/01/31 12:54:33;;;;;;;19.40;5.30;;;;;;;;;;4953878;28;20488;-78
2022/01/31 12:57:13;;;;;;;17.92;5.20;;;;;;;;;;4955294;29;20081;-78
2022/01/31 12:59:40;;;;;;;17.95;4.93;;;;;;;;;;4955219;29;20360;-78
2022/01/31 13:02:07;;;;;;;21.70;5.95;;;;;;;;;;4948709;28;20101;-77
2022/01/31 13:04:33;;;;;;;21.23;5.30;;;;;;;;;;4946033;29;20043;-77
2022/01/31 13:07:00;;;;;;;17.45;4.85;;;;;;;;;;4952022;28;20149;-78
2022/01/31 13:09:27;;;;;;;19.10;5.97;;;;;;;;;;4952848;28;20043;-78
2022/01/31 13:11:53;;;;;;;20.25;5.53;;;;;;;;;;4953967;28;20472;-78
2022/01/31 13:14:24;;;;;;;23.55;5.13;;;;;;;;;;4955705;28;20047;-78
2022/01/31 13:17:05;;;;;;;20.73;5.55;;;;;;;;;;4936012;28;20075;-78
2022/01/31 13:19:33;;;;;;;23.67;6.30;;;;;;;;;;4936261;29;20055;-78
2022/01/31 13:22:01;;;;;;;20.98;5.38;;;;;;;;;;4935686;29;20055;-78
2022/01/31 13:24:40;;;;;;;21.75;5.65;;;;;;;;;;4929215;29;20052;-78
2022/01/31 13:27:08;;;;;;;19.45;5.88;;;;;;;;;;4918358;29;20107;-77
2022/01/31 13:29:35;;;;;;;21.40;5.70;;;7.90;99.90;;;;;;4936487;28;20442;-78
2022/01/31 13:32:14;;;;;;;20.98;4.78;;;7.50;99.90;;;;;;4953547;28;20031;-78
2022/01/31 13:34:41;;;;;;;19.88;4.90;;;7.60;99.90;;;;;;4939116;29;20044;-77
2022/01/31 13:37:32;;;;;;;15.40;4.60;;;7.60;99.90;;;;;;4933551;28;20071;-78
2022/01/31 13:40:02;;;;;;;16.08;4.55;;;7.70;99.90;;;;;;4935019;29;20051;-77
2022/01/31 13:42:33;;;;;;;15.15;4.63;;;7.60;99.90;;;;;;4953666;29;20047;-78
2022/01/31 13:44:59;;;;;;;12.27;3.30;;;7.60;99.90;;;;;;4953585;28;20114;-78
2022/01/31 13:47:49;;;;;;;16.42;3.63;;;7.60;99.90;;;;;;4953837;29;20047;-79
2022/01/31 13:50:16;;;;;;;12.73;3.47;;;7.60;99.90;;;;;;4954101;29;20043;-78
2022/01/31 13:52:53;;;;;;;13.85;3.25;;;7.50;99.90;;;;;;4936054;29;20079;-79
2022/01/31 13:55:20;;;;;;;11.82;3.60;;;7.40;99.90;;;;;;4954131;28;20055;-78
2022/01/31 13:57:46;;;;;;;15.60;4.38;;;7.50;99.90;;;;;;4952475;29;20043;-78
2022/01/31 14:00:12;;;;;;;13.07;4.10;;;7.50;99.90;;;;;;4954260;28;20055;-78
2022/01/31 14:02:39;;;;;;;17.35;4.45;;;7.50;99.90;;;;;;4953384;29;20057;-79
2022/01/31 14:05:19;;;;;;;17.40;5.05;;;7.60;99.90;;;;;;4952588;28;20157;-78
2022/01/31 14:07:45;;;;;;;15.07;3.83;;;7.50;99.90;;;;;;4953017;28;20512;-78
2022/01/31 14:10:24;;;;;;;13.73;3.97;;;7.60;99.90;;;;;;4954603;29;20067;-77
2022/01/31 14:12:57;;;;;;;14.38;3.55;;;7.60;99.90;;;;;;4953506;29;20058;-78
2022/01/31 14:15:27;;;;;;;11.98;3.83;;;7.50;99.90;;;;;;4953169;28;20048;-78
2022/01/31 14:17:54;;;;;;;12.77;3.28;;;7.50;99.90;;;;;;4934857;28;20149;-78
2022/01/31 14:20:19;;;;;;;8.27;2.85;;;7.50;99.90;;;;;;4952688;29;20083;-78
2022/01/31 14:22:58;;;;;;;10.63;2.75;;;7.50;99.90;;;;;;4952486;28;20066;-78
2022/01/31 14:25:24;;;;;;;9.50;2.78;;;7.50;99.90;;;;;;4953853;29;20508;-78
2022/01/31 14:27:52;;;;;;;10.30;3.17;;;7.50;99.90;;;;;;4935816;28;20083;-78
2022/01/31 14:30:22;;;;;;;12.52;3.53;;;7.40;99.90;;;;;;4953411;29;20155;-77